Zeugman — TCCO9 — position and weather

sailwx.info

Track history (hours):
 
Tides and Currents Weather Stations Pressure Air Temp Water Temp Dewpoint Dewpoint Depression Visibility Wind Speed Wind Dir Waves Ship Positions

Zeugman

Last reported at 2018-May-22 09:51 UTC. Time now 2018-May-22 19:50 UTC.
Position N 36°41' E 014°36'.

Length 109 m; draft 5.3 m.

Type: Tanker. MMSI: 271000725.

Date/timePositionNaut miles runAvg speedWind from/ knotsBaromVisibWave heightAir tempDewpointWater temp
2018-May-22 09:51N 36°41' E 014°36'411.1
2018-May-22 09:30N 36°42' E 014°32'511.0
2018-May-22 09:00N 36°44' E 014°25'510.8
2018-May-22 08:30N 36°47' E 014°20'510.8
2018-May-22 08:00N 36°50' E 014°14'510.8
2018-May-22 07:30N 36°53' E 014°08'610.9
2018-May-22 07:00N 36°56' E 014°03'511.1
2018-May-22 06:30N 36°59' E 013°57'611.3
2018-May-22 06:00N 37°02' E 013°51'  
2018-May-18 17:57N 35°56' W 005°11'511.4
2018-May-18 17:30N 35°55' W 005°18'2 3.3
2018-May-18 17:00N 35°54' W 005°18'0 0.0
2018-May-18 16:30N 35°54' W 005°18'0 0.0
2018-May-18 16:00N 35°54' W 005°18'0 0.0
2018-May-18 15:30N 35°54' W 005°18'0 0.0
2018-May-18 15:00N 35°54' W 005°18'0 0.0
2018-May-18 14:30N 35°54' W 005°18'0 0.8
2018-May-18 14:00N 35°54' W 005°19'2 3.9
2018-May-18 13:30N 35°56' W 005°20'0 0.9
2018-May-18 13:00N 35°56' W 005°20'1 1.2
2018-May-18 12:30N 35°56' W 005°20'1 1.1
2018-May-18 12:00N 35°57' W 005°19'0 0.2
2018-May-18 11:30N 35°57' W 005°19'1 2.9
2018-May-18 11:00N 35°55' W 005°20'1 1.5
2018-May-18 10:30N 35°56' W 005°21'510.2
2018-May-18 10:00N 35°57' W 005°27'1212.3
2018-May-18 09:04N 35°54' W 005°40'  
2018-May-15 14:45N 28°39' W 014°60'3 9.9
2018-May-15 14:29N 28°38' W 015°03'5 9.6
2018-May-15 14:00N 28°38' W 015°08'5 9.6
2018-May-15 13:30N 28°37' W 015°13'5 9.3
2018-May-15 13:00N 28°37' W 015°19'5 9.4
2018-May-15 12:30N 28°36' W 015°24'5 9.6
2018-May-15 11:59N 28°35' W 015°30'5 9.5
2018-May-15 11:29N 28°35' W 015°35'5 9.5
2018-May-15 11:00N 28°34' W 015°40'4 9.0
2018-May-15 10:30N 28°31' W 015°44'5 9.2
2018-May-15 10:00N 28°27' W 015°47'5 9.2
2018-May-15 09:26N 28°23' W 015°51'4 9.1
2018-May-15 09:00N 28°20' W 015°54'4 8.9
2018-May-15 08:30N 28°17' W 015°57'  
Track history (hours):
 
Tides and Currents Weather Stations Pressure Air Temp Water Temp Dewpoint Dewpoint Depression Visibility Wind Speed Wind Dir Waves Ship Positions

Zeugman

Last reported at 2018-May-22 09:51 UTC. Time now 2018-May-22 19:50 UTC.
Position N 36°41' E 014°36'.

Length 109 m; draft 5.3 m.

Type: Tanker. MMSI: 271000725.

Date/timePositionNaut miles runAvg speedWind from/ knotsBaromVisibWave heightAir tempDewpointWater temp
2018-May-22 09:51N 36°41' E 014°36'411.1
2018-May-22 09:30N 36°42' E 014°32'511.0
2018-May-22 09:00N 36°44' E 014°25'510.8
2018-May-22 08:30N 36°47' E 014°20'510.8
2018-May-22 08:00N 36°50' E 014°14'510.8
2018-May-22 07:30N 36°53' E 014°08'610.9
2018-May-22 07:00N 36°56' E 014°03'511.1
2018-May-22 06:30N 36°59' E 013°57'611.3
2018-May-22 06:00N 37°02' E 013°51'  
2018-May-18 17:57N 35°56' W 005°11'511.4
2018-May-18 17:30N 35°55' W 005°18'2 3.3
2018-May-18 17:00N 35°54' W 005°18'0 0.0
2018-May-18 16:30N 35°54' W 005°18'0 0.0
2018-May-18 16:00N 35°54' W 005°18'0 0.0
2018-May-18 15:30N 35°54' W 005°18'0 0.0
2018-May-18 15:00N 35°54' W 005°18'0 0.0
2018-May-18 14:30N 35°54' W 005°18'0 0.8
2018-May-18 14:00N 35°54' W 005°19'2 3.9
2018-May-18 13:30N 35°56' W 005°20'0 0.9
2018-May-18 13:00N 35°56' W 005°20'1 1.2
2018-May-18 12:30N 35°56' W 005°20'1 1.1
2018-May-18 12:00N 35°57' W 005°19'0 0.2
2018-May-18 11:30N 35°57' W 005°19'1 2.9
2018-May-18 11:00N 35°55' W 005°20'1 1.5
2018-May-18 10:30N 35°56' W 005°21'510.2
2018-May-18 10:00N 35°57' W 005°27'1212.3
2018-May-18 09:04N 35°54' W 005°40'  
2018-May-15 14:45N 28°39' W 014°60'3 9.9
2018-May-15 14:29N 28°38' W 015°03'5 9.6
2018-May-15 14:00N 28°38' W 015°08'5 9.6
2018-May-15 13:30N 28°37' W 015°13'5 9.3
2018-May-15 13:00N 28°37' W 015°19'5 9.4
2018-May-15 12:30N 28°36' W 015°24'5 9.6
2018-May-15 11:59N 28°35' W 015°30'5 9.5
2018-May-15 11:29N 28°35' W 015°35'5 9.5
2018-May-15 11:00N 28°34' W 015°40'4 9.0
2018-May-15 10:30N 28°31' W 015°44'5 9.2
2018-May-15 10:00N 28°27' W 015°47'5 9.2
2018-May-15 09:26N 28°23' W 015°51'4 9.1
2018-May-15 09:00N 28°20' W 015°54'4 8.9
2018-May-15 08:30N 28°17' W 015°57'  

Dump ship's entire track history